Time;durP1;ratioP1;P1;durP2;ratioP2;P2;SDS_P1;SDS_P2;PMS_P1;PMS_P2;Temp;Humidity;BMP_temperature;BMP_pressure;BME280_temperature;BME280_humidity;BME280_pressure;Samples;Min_cycle;Max_cycle;Signal;HPM_P1;HPM_P2
2023/11/09 00:01:18;;;;;;;3.08;1.55;;;8.70;99.90;;;;;;5027256;28;20223;-66
2023/11/09 00:03:43;;;;;;;3.08;1.58;;;8.60;99.90;;;;;;5026515;28;20033;-66
2023/11/09 00:06:10;;;;;;;5.00;1.45;;;8.60;99.90;;;;;;5027332;28;20041;-66
2023/11/09 00:08:40;;;;;;;4.57;1.83;;;8.60;99.90;;;;;;5025935;28;20082;-67
2023/11/09 00:11:06;;;;;;;2.97;1.45;;;8.70;99.90;;;;;;5036714;28;20759;-66
2023/11/09 00:13:32;;;;;;;3.03;1.42;;;8.60;99.90;;;;;;5035364;28;20033;-67
2023/11/09 00:15:57;;;;;;;2.60;1.52;;;8.60;99.90;;;;;;5035341;28;20045;-67
2023/11/09 00:18:23;;;;;;;2.17;1.20;;;8.60;99.90;;;;;;5033398;28;20030;-66
2023/11/09 00:20:50;;;;;;;2.05;1.15;;;8.60;99.90;;;;;;5029278;28;20025;-67
2023/11/09 00:23:15;;;;;;;4.05;1.45;;;8.60;99.90;;;;;;5025288;28;20152;-67
2023/11/09 00:25:41;;;;;;;4.88;1.42;;;8.60;99.90;;;;;;5029618;28;20517;-67
2023/11/09 00:28:07;;;;;;;5.43;1.50;;;8.60;99.90;;;;;;5031899;28;20605;-66
2023/11/09 00:30:32;;;;;;;3.80;1.10;;;8.60;99.90;;;;;;5022626;28;20586;-66
2023/11/09 00:49:48;;;;;;;7.82;1.77;;;8.60;99.90;;;;;;5021787;28;20040;-67
2023/11/09 00:52:13;;;;;;;5.10;1.20;;;8.60;99.90;;;;;;5026746;28;20017;-67
2023/11/09 00:54:39;;;;;;;5.88;1.52;;;8.50;99.90;;;;;;5028789;28;20076;-66
2023/11/09 00:57:04;;;;;;;3.65;1.73;;;8.60;99.90;;;;;;5029237;28;20032;-67
2023/11/09 00:59:30;;;;;;;13.57;1.20;;;8.60;99.90;;;;;;5024170;28;20025;-67
2023/11/09 01:01:55;;;;;;;3.20;1.27;;;8.60;99.90;;;;;;5026770;28;20031;-67
2023/11/09 01:04:21;;;;;;;4.03;1.45;;;8.60;99.90;;;;;;5002806;28;20037;-66
2023/11/09 01:06:47;;;;;;;3.75;1.40;;;8.60;99.90;;;;;;5026628;28;20029;-67
2023/11/09 01:09:16;;;;;;;3.75;1.48;;;8.60;99.90;;;;;;5024156;28;20105;-67
2023/11/09 01:11:41;;;;;;;2.97;1.30;;;8.60;99.90;;;;;;5027986;28;20112;-67
2023/11/09 01:14:07;;;;;;;5.15;1.83;;;8.60;99.90;;;;;;5028983;28;20097;-67
2023/11/09 01:16:32;;;;;;;6.05;1.50;;;8.60;99.90;;;;;;5024166;28;20087;-67
2023/11/09 01:18:58;;;;;;;2.35;1.30;;;8.50;99.90;;;;;;5027085;28;20029;-67
2023/11/09 01:21:23;;;;;;;4.75;1.40;;;8.60;99.90;;;;;;5025270;28;20034;-67
2023/11/09 01:23:49;;;;;;;3.63;1.48;;;8.60;99.90;;;;;;5027128;28;20471;-67
2023/11/09 01:26:14;;;;;;;5.65;1.63;;;8.60;99.90;;;;;;5027381;28;20025;-67
2023/11/09 01:28:40;;;;;;;3.22;1.20;;;8.60;99.90;;;;;;5027300;28;20454;-67
2023/11/09 01:31:05;;;;;;;3.28;1.45;;;8.60;99.90;;;;;;5029053;28;20049;-67
2023/11/09 01:33:31;;;;;;;3.45;1.20;;;8.50;99.90;;;;;;5027723;28;20040;-67
2023/11/09 01:35:57;;;;;;;3.67;1.33;;;8.50;99.90;;;;;;5025871;28;20073;-67
2023/11/09 01:38:25;;;;;;;3.63;1.60;;;8.50;99.90;;;;;;5025327;28;20422;-67
2023/11/09 01:40:52;;;;;;;1.80;1.30;;;8.50;99.90;;;;;;5026922;28;20487;-67
2023/11/09 01:43:18;;;;;;;4.05;1.38;;;8.50;99.90;;;;;;5027067;28;20018;-68
2023/11/09 01:45:45;;;;;;;4.35;1.60;;;8.50;99.90;;;;;;5026433;28;20044;-66
2023/11/09 01:48:11;;;;;;;5.43;1.38;;;8.50;99.90;;;;;;5024185;28;20064;-66
2023/11/09 01:50:37;;;;;;;5.63;1.38;;;8.50;99.90;;;;;;5022551;28;20033;-67
2023/11/09 01:53:07;;;;;;;4.78;1.40;;;8.60;99.90;;;;;;5029892;28;20095;-68
2023/11/09 01:55:34;;;;;;;2.88;1.23;;;8.60;99.90;;;;;;5035236;28;20025;-66
2023/11/09 01:58:00;;;;;;;1.85;1.15;;;8.70;99.90;;;;;;5026385;28;20030;-66
2023/11/09 02:00:26;;;;;;;6.00;1.35;;;8.60;99.90;;;;;;5028772;28;20043;-68
2023/11/09 02:02:53;;;;;;;3.13;1.38;;;8.60;99.90;;;;;;5025328;28;20029;-66
2023/11/09 02:05:19;;;;;;;3.45;1.30;;;8.60;99.90;;;;;;5027740;28;20474;-66
2023/11/09 02:07:45;;;;;;;2.58;1.50;;;8.60;99.90;;;;;;5030945;28;20036;-66
2023/11/09 02:10:13;;;;;;;6.35;1.40;;;8.50;99.90;;;;;;5024721;28;20021;-66
2023/11/09 02:12:39;;;;;;;7.63;1.75;;;8.50;99.90;;;;;;5032078;28;20029;-67
2023/11/09 02:15:05;;;;;;;2.08;1.13;;;8.60;99.90;;;;;;5026173;28;20053;-67
2023/11/09 02:17:31;;;;;;;3.42;1.38;;;8.60;99.90;;;;;;5028199;28;20029;-66
2023/11/09 02:19:58;;;;;;;2.25;1.08;;;8.60;99.90;;;;;;5026434;28;20104;-66
2023/11/09 02:22:26;;;;;;;6.05;1.52;;;8.60;99.90;;;;;;5025085;28;20518;-66
2023/11/09 02:24:55;;;;;;;1.88;1.02;;;8.60;99.90;;;;;;5022658;28;20105;-67
2023/11/09 02:27:20;;;;;;;2.15;1.17;;;8.60;99.90;;;;;;5030658;28;20784;-67
2023/11/09 02:29:46;;;;;;;4.57;0.82;;;8.70;99.90;;;;;;5030180;28;20224;-66
2023/11/09 02:32:12;;;;;;;2.55;1.30;;;8.70;99.90;;;;;;5030817;28;20108;-68
2023/11/09 02:34:37;;;;;;;2.17;0.70;;;8.70;99.90;;;;;;5027388;28;20064;-66
2023/11/09 02:37:06;;;;;;;2.10;0.90;;;8.70;99.90;;;;;;5027308;28;20025;-67
2023/11/09 02:39:32;;;;;;;2.03;1.00;;;8.70;99.90;;;;;;5019776;28;20099;-66
2023/11/09 02:41:57;;;;;;;1.88;1.30;;;8.70;99.90;;;;;;5029113;28;20029;-66
2023/11/09 02:44:24;;;;;;;2.40;1.48;;;8.70;99.90;;;;;;5031578;28;20021;-66
2023/11/09 02:46:49;;;;;;;2.90;1.00;;;8.70;99.90;;;;;;5025204;28;20036;-66
2023/11/09 02:49:15;;;;;;;1.95;1.00;;;8.70;99.90;;;;;;5031611;28;20449;-67
2023/11/09 02:51:40;;;;;;;2.08;0.73;;;8.70;99.90;;;;;;5030469;28;20033;-67
2023/11/09 02:54:06;;;;;;;1.88;1.00;;;8.70;99.90;;;;;;5030766;28;20491;-66
2023/11/09 02:56:32;;;;;;;2.13;1.20;;;8.80;99.90;;;;;;5028653;28;20033;-66
2023/11/09 02:58:58;;;;;;;3.45;1.23;;;8.80;99.90;;;;;;5033401;28;20702;-66
2023/11/09 03:01:24;;;;;;;2.28;1.02;;;8.80;99.90;;;;;;5031540;28;20100;-69
2023/11/09 03:03:52;;;;;;;1.65;0.90;;;8.80;99.90;;;;;;5032821;28;20022;-66
2023/11/09 03:06:19;;;;;;;2.08;1.30;;;8.80;99.90;;;;;;5028603;28;20100;-66
2023/11/09 03:08:46;;;;;;;1.15;0.88;;;8.80;99.90;;;;;;5031166;28;20120;-66
2023/11/09 03:11:12;;;;;;;4.70;1.25;;;8.80;99.90;;;;;;5028764;28;20027;-66
2023/11/09 03:13:39;;;;;;;2.95;1.20;;;8.90;99.90;;;;;;5027810;28;20041;-66
2023/11/09 03:16:07;;;;;;;4.57;1.38;;;8.80;99.90;;;;;;5031187;28;20021;-67
2023/11/09 03:18:33;;;;;;;3.58;1.05;;;8.90;99.90;;;;;;5025243;28;20034;-67
2023/11/09 03:20:59;;;;;;;2.97;1.15;;;8.80;99.90;;;;;;5030566;28;20501;-67
2023/11/09 03:23:26;;;;;;;1.85;1.23;;;8.80;99.90;;;;;;5030664;28;20482;-68
2023/11/09 03:25:55;;;;;;;2.10;1.15;;;8.80;99.90;;;;;;5033180;28;20041;-67
2023/11/09 03:28:21;;;;;;;2.90;1.25;;;8.80;99.90;;;;;;5027192;28;20086;-68
2023/11/09 03:30:46;;;;;;;2.20;1.10;;;8.80;99.90;;;;;;5030377;28;20064;-67
2023/11/09 03:33:12;;;;;;;1.60;1.00;;;8.80;99.90;;;;;;5031983;28;20091;-68
2023/11/09 03:35:38;;;;;;;3.65;1.08;;;8.80;99.90;;;;;;5029025;28;20044;-67
2023/11/09 03:38:04;;;;;;;3.75;1.00;;;8.80;99.90;;;;;;5010378;28;20041;-67
2023/11/09 03:40:30;;;;;;;2.92;1.20;;;8.80;99.90;;;;;;5048151;28;20143;-67
2023/11/09 03:42:56;;;;;;;7.10;1.15;;;8.80;99.90;;;;;;5044713;28;20045;-64
2023/11/09 03:45:22;;;;;;;4.68;1.05;;;8.80;99.90;;;;;;5046566;28;21022;-68
2023/11/09 03:47:47;;;;;;;2.20;1.00;;;8.80;99.90;;;;;;5043243;28;20099;-68
2023/11/09 03:50:13;;;;;;;6.45;2.03;;;8.80;99.90;;;;;;5047004;28;20033;-68
2023/11/09 03:52:39;;;;;;;3.10;1.30;;;8.80;99.90;;;;;;5052238;28;20040;-67
2023/11/09 03:55:10;;;;;;;1.00;0.80;;;8.80;99.90;;;;;;5048232;28;20060;-68
2023/11/09 03:57:36;;;;;;;3.30;0.93;;;8.80;99.90;;;;;;5055810;28;20033;-68
2023/11/09 04:00:08;;;;;;;2.00;0.93;;;8.80;99.90;;;;;;5059410;28;20450;-67
2023/11/09 04:02:35;;;;;;;1.85;0.90;;;8.80;99.90;;;;;;5054772;28;20020;-68
2023/11/09 04:05:01;;;;;;;1.67;1.17;;;8.80;99.90;;;;;;5054178;28;20044;-66
2023/11/09 04:07:27;;;;;;;2.90;1.20;;;8.80;99.90;;;;;;5054867;28;20039;-67
2023/11/09 04:09:54;;;;;;;2.38;0.98;;;8.80;99.90;;;;;;5045929;28;20038;-67
2023/11/09 04:12:20;;;;;;;1.65;1.00;;;8.80;99.90;;;;;;5045133;28;20411;-68
2023/11/09 04:14:45;;;;;;;2.17;1.25;;;8.80;99.90;;;;;;5038454;28;20032;-68
2023/11/09 04:17:11;;;;;;;1.50;1.00;;;8.80;99.90;;;;;;5028747;28;20047;-68
2023/11/09 04:19:37;;;;;;;2.65;1.00;;;8.80;99.90;;;;;;5031460;28;20406;-68
2023/11/09 04:22:04;;;;;;;1.85;0.98;;;8.90;99.90;;;;;;5045869;28;20422;-68
2023/11/09 04:24:30;;;;;;;1.40;0.80;;;8.80;99.90;;;;;;5033017;28;20033;-67
2023/11/09 04:26:55;;;;;;;3.30;1.08;;;8.80;99.90;;;;;;5025533;28;20033;-67
2023/11/09 04:29:21;;;;;;;1.27;0.95;;;8.80;99.90;;;;;;5038670;28;20025;-67
2023/11/09 04:31:47;;;;;;;1.23;1.10;;;8.80;99.90;;;;;;5035519;28;20029;-67
2023/11/09 04:34:14;;;;;;;1.60;1.15;;;8.80;99.90;;;;;;5032923;28;20116;-67
2023/11/09 04:36:42;;;;;;;3.55;1.17;;;8.80;99.90;;;;;;5028450;28;20094;-67
2023/11/09 04:39:08;;;;;;;4.40;1.10;;;8.80;99.90;;;;;;5033200;28;20053;-67
2023/11/09 04:41:34;;;;;;;1.75;1.05;;;8.80;99.90;;;;;;5029201;28;20100;-67
2023/11/09 04:44:01;;;;;;;1.77;1.05;;;8.80;99.90;;;;;;5026752;28;20117;-67
2023/11/09 04:46:28;;;;;;;1.52;1.30;;;8.80;99.90;;;;;;5035114;28;20092;-68
2023/11/09 04:48:55;;;;;;;2.65;0.80;;;8.80;99.90;;;;;;5036589;28;20022;-68
2023/11/09 04:51:22;;;;;;;2.03;1.20;;;8.80;99.90;;;;;;5034087;28;20032;-67
2023/11/09 04:53:51;;;;;;;1.60;0.82;;;8.80;99.90;;;;;;5029439;28;20168;-67
2023/11/09 04:56:38;;;;;;;2.05;1.08;;;8.80;99.90;;;;;;5029308;28;20033;-67
2023/11/09 05:07:32;;;;;;;6.72;1.15;;;8.80;99.90;;;;;;5038408;28;20516;-68
2023/11/09 05:09:58;;;;;;;1.25;0.90;;;8.80;99.90;;;;;;5041790;28;20025;-68
2023/11/09 05:12:24;;;;;;;1.98;0.85;;;8.80;99.90;;;;;;5036359;28;20502;-67
2023/11/09 05:14:50;;;;;;;3.78;1.30;;;8.80;99.90;;;;;;5030542;28;20025;-66
2023/11/09 05:17:15;;;;;;;2.58;0.95;;;8.80;99.90;;;;;;5026100;28;20032;-67
2023/11/09 05:19:43;;;;;;;2.60;0.90;;;8.80;99.90;;;;;;5028801;28;20025;-68
2023/11/09 05:22:09;;;;;;;1.10;0.90;;;8.80;99.90;;;;;;5029565;28;20034;-67
2023/11/09 05:24:44;;;;;;;0.80;0.60;;;8.70;99.90;;;;;;5005964;28;20495;-67
2023/11/09 05:27:10;;;;;;;1.30;0.90;;;8.70;99.90;;;;;;5031025;28;20049;-68
2023/11/09 05:29:36;;;;;;;4.03;1.70;;;8.70;99.90;;;;;;5031401;28;20360;-67
2023/11/09 05:32:06;;;;;;;2.72;1.00;;;8.70;99.90;;;;;;5031298;28;20071;-69
2023/11/09 05:34:35;;;;;;;2.35;0.80;;;8.70;99.90;;;;;;5030217;28;20026;-67
2023/11/09 05:37:02;;;;;;;3.78;2.13;;;8.70;99.90;;;;;;5026443;28;20072;-67
2023/11/09 05:39:31;;;;;;;1.10;0.90;;;8.70;99.90;;;;;;5027578;28;20418;-67
2023/11/09 05:41:59;;;;;;;2.83;1.15;;;8.70;99.90;;;;;;5029167;28;20014;-66
2023/11/09 05:44:25;;;;;;;3.88;1.73;;;8.70;99.90;;;;;;5028778;28;20029;-67
2023/11/09 05:46:51;;;;;;;1.55;1.08;;;8.70;99.90;;;;;;5022110;28;20023;-66
2023/11/09 05:49:17;;;;;;;2.13;1.10;;;8.70;99.90;;;;;;5012873;28;20029;-67
2023/11/09 05:51:47;;;;;;;2.10;1.00;;;8.70;99.90;;;;;;5028078;28;20065;-68
2023/11/09 05:54:13;;;;;;;1.92;0.88;;;8.70;99.90;;;;;;5031441;28;20021;-67
2023/11/09 05:56:40;;;;;;;0.70;0.70;;;8.60;99.90;;;;;;5027864;28;20112;-67
2023/11/09 05:59:06;;;;;;;1.65;1.52;;;8.60;99.90;;;;;;5027689;28;20031;-68
2023/11/09 06:01:32;;;;;;;1.90;0.98;;;8.60;99.90;;;;;;5025718;28;20477;-67
2023/11/09 06:04:02;;;;;;;2.95;1.10;;;8.60;99.90;;;;;;5029807;28;20049;-67
2023/11/09 06:06:28;;;;;;;2.05;1.02;;;8.60;99.90;;;;;;5027575;28;20017;-67
2023/11/09 06:08:55;;;;;;;1.35;0.80;;;8.60;99.90;;;;;;5029672;28;20026;-67
2023/11/09 06:11:21;;;;;;;1.17;0.88;;;8.60;99.90;;;;;;5028697;28;20025;-67
2023/11/09 06:13:47;;;;;;;2.28;1.02;;;8.50;99.90;;;;;;5029910;28;20414;-68
2023/11/09 06:16:14;;;;;;;1.55;0.88;;;8.50;99.90;;;;;;5027826;28;20112;-68
2023/11/09 06:18:39;;;;;;;1.77;0.90;;;8.60;99.90;;;;;;5027190;28;20051;-67
2023/11/09 06:21:05;;;;;;;1.55;0.82;;;8.50;99.90;;;;;;5029232;28;20034;-68
2023/11/09 06:23:31;;;;;;;1.10;0.80;;;8.50;99.90;;;;;;5014462;28;20045;-68
2023/11/09 06:25:57;;;;;;;4.82;1.02;;;8.50;99.90;;;;;;5028288;28;20029;-68
2023/11/09 06:28:23;;;;;;;1.52;1.20;;;8.50;99.90;;;;;;5028205;28;20060;-67
2023/11/09 06:30:51;;;;;;;1.45;1.02;;;8.50;99.90;;;;;;5024720;28;20582;-67
2023/11/09 06:33:17;;;;;;;1.52;0.80;;;8.60;99.90;;;;;;5020655;28;20112;-68
2023/11/09 06:35:45;;;;;;;1.35;1.10;;;8.60;99.90;;;;;;5026687;28;20029;-67
2023/11/09 06:38:10;;;;;;;3.47;1.25;;;8.60;99.90;;;;;;5029254;28;20048;-67
2023/11/09 06:40:36;;;;;;;4.40;0.98;;;8.50;99.90;;;;;;5028730;28;20079;-67
2023/11/09 06:43:02;;;;;;;3.60;1.35;;;8.60;99.90;;;;;;5028495;28;20231;-68
2023/11/09 06:45:28;;;;;;;4.03;1.63;;;8.60;99.90;;;;;;5026554;28;20033;-68
2023/11/09 06:47:54;;;;;;;1.58;1.15;;;8.60;99.90;;;;;;5031012;28;20502;-68
2023/11/09 06:50:19;;;;;;;3.65;1.08;;;8.50;99.90;;;;;;5029235;28;20044;-67
2023/11/09 06:52:46;;;;;;;1.85;1.10;;;8.60;99.90;;;;;;5030677;28;20475;-67
2023/11/09 06:55:17;;;;;;;2.28;1.02;;;8.60;99.90;;;;;;5028375;28;20028;-67
2023/11/09 06:57:44;;;;;;;1.73;0.95;;;8.60;99.90;;;;;;5029829;28;20045;-67
2023/11/09 07:00:11;;;;;;;1.63;1.30;;;8.50;99.90;;;;;;5027546;28;20469;-67
2023/11/09 07:02:38;;;;;;;1.35;0.93;;;8.60;99.90;;;;;;5029284;28;20028;-67
2023/11/09 07:05:07;;;;;;;2.78;1.40;;;8.60;99.90;;;;;;5019408;28;20168;-67
2023/11/09 07:07:34;;;;;;;1.48;0.90;;;8.60;99.90;;;;;;5032441;28;20038;-67
2023/11/09 07:10:00;;;;;;;3.55;0.98;;;8.60;99.90;;;;;;5031205;28;20029;-67
2023/11/09 07:12:26;;;;;;;1.73;0.98;;;8.60;99.90;;;;;;5036002;28;20112;-67
2023/11/09 07:14:52;;;;;;;2.63;1.10;;;8.60;99.90;;;;;;5035919;28;20088;-66
2023/11/09 07:17:19;;;;;;;2.05;1.20;;;8.70;99.90;;;;;;5035153;28;20551;-67
2023/11/09 07:19:48;;;;;;;2.25;1.15;;;8.70;99.90;;;;;;5034873;28;20033;-67
2023/11/09 07:22:20;;;;;;;1.35;0.80;;;8.70;99.90;;;;;;5032459;28;20486;-67
2023/11/09 07:24:49;;;;;;;1.17;0.77;;;8.70;99.90;;;;;;5034232;28;20568;-67
2023/11/09 07:27:16;;;;;;;1.48;1.05;;;8.70;99.90;;;;;;5033711;28;20040;-68
2023/11/09 07:29:41;;;;;;;1.90;1.02;;;8.70;99.90;;;;;;5034318;28;20024;-67
2023/11/09 07:32:07;;;;;;;4.70;1.20;;;8.60;99.90;;;;;;5038020;28;20386;-67
2023/11/09 07:34:33;;;;;;;2.05;0.80;;;8.70;99.90;;;;;;5035078;28;20100;-68
2023/11/09 07:37:06;;;;;;;1.27;0.60;;;8.70;99.90;;;;;;5037176;28;20483;-67
2023/11/09 07:39:33;;;;;;;1.77;1.05;;;8.70;99.90;;;;;;5029006;28;20038;-67
2023/11/09 07:42:00;;;;;;;2.30;0.77;;;8.70;99.90;;;;;;5035878;28;20104;-67
2023/11/09 07:44:27;;;;;;;2.17;0.80;;;8.70;99.90;;;;;;5036135;28;20509;-67
2023/11/09 07:46:53;;;;;;;1.70;0.90;;;8.70;99.90;;;;;;5030560;28;20112;-67
2023/11/09 07:49:19;;;;;;;1.40;0.95;;;8.80;99.90;;;;;;5033504;28;20513;-67
2023/11/09 07:51:45;;;;;;;1.15;1.00;;;8.80;99.90;;;;;;5033338;28;20033;-67
2023/11/09 07:54:11;;;;;;;7.45;3.53;;;8.70;99.90;;;;;;5033574;28;20035;-67
2023/11/09 07:56:37;;;;;;;2.30;1.63;;;8.70;99.90;;;;;;5023545;28;20549;-67
2023/11/09 07:59:03;;;;;;;2.90;2.20;;;8.70;99.90;;;;;;5023922;28;20041;-66
2023/11/09 08:01:29;;;;;;;4.35;2.67;;;8.80;99.90;;;;;;5034902;28;20083;-67
2023/11/09 08:03:55;;;;;;;5.18;2.47;;;8.80;99.90;;;;;;5031468;28;20515;-67
2023/11/09 08:06:22;;;;;;;1.73;1.30;;;8.80;99.90;;;;;;5033493;28;20032;-67
2023/11/09 08:08:50;;;;;;;2.90;0.60;;;8.80;99.90;;;;;;5030374;28;20072;-68
2023/11/09 08:11:16;;;;;;;6.00;1.00;;;8.80;99.90;;;;;;5031028;28;20105;-67
2023/11/09 08:13:41;;;;;;;2.25;0.60;;;8.70;99.90;;;;;;5036047;28;20121;-67
2023/11/09 08:16:08;;;;;;;0.73;0.73;;;8.70;99.90;;;;;;5033505;28;20034;-67
2023/11/09 08:18:34;;;;;;;0.55;0.55;;;8.80;99.90;;;;;;5030452;28;20037;-67
2023/11/09 08:21:03;;;;;;;1.52;0.75;;;8.70;99.90;;;;;;5033323;28;20096;-68
2023/11/09 08:23:32;;;;;;;1.85;0.63;;;8.70;99.90;;;;;;5032336;28;20155;-67
2023/11/09 08:25:58;;;;;;;3.88;0.52;;;8.80;99.90;;;;;;5031263;28;20151;-68
2023/11/09 08:28:24;;;;;;;1.17;0.80;;;8.70;99.90;;;;;;5030660;28;20475;-67
2023/11/09 08:30:51;;;;;;;3.95;1.00;;;8.70;99.90;;;;;;5034017;28;20033;-67
2023/11/09 08:33:21;;;;;;;1.20;0.68;;;8.80;99.90;;;;;;5037742;28;20060;-67
2023/11/09 08:35:49;;;;;;;2.22;0.77;;;8.80;99.90;;;;;;5026647;28;20510;-68
2023/11/09 08:38:15;;;;;;;0.85;0.70;;;8.80;99.90;;;;;;5016776;28;20076;-68
2023/11/09 08:40:42;;;;;;;1.33;0.90;;;8.80;99.90;;;;;;5036237;28;20490;-67
2023/11/09 08:43:10;;;;;;;0.75;0.50;;;8.80;99.90;;;;;;5031503;28;20033;-68
2023/11/09 08:45:36;;;;;;;1.67;0.70;;;8.90;99.90;;;;;;5034208;28;20426;-67
2023/11/09 08:48:02;;;;;;;0.75;0.52;;;8.80;99.90;;;;;;5028535;28;20022;-68
2023/11/09 08:50:28;;;;;;;1.10;0.90;;;8.80;99.90;;;;;;5035040;28;20490;-68
2023/11/09 08:52:54;;;;;;;1.63;0.60;;;8.90;99.90;;;;;;5034251;28;20025;-66
2023/11/09 08:55:20;;;;;;;4.07;1.58;;;8.80;99.90;;;;;;5038744;28;20029;-67
2023/11/09 08:57:50;;;;;;;1.42;0.85;;;8.90;99.90;;;;;;5025903;28;20467;-67
2023/11/09 09:00:16;;;;;;;1.98;1.30;;;8.90;99.90;;;;;;5029268;28;20021;-67
2023/11/09 09:02:49;;;;;;;2.88;0.95;;;9.00;99.90;;;;;;5034836;28;20108;-67
2023/11/09 09:05:20;;;;;;;6.95;3.97;;;9.10;99.90;;;;;;5030598;28;20099;-67
2023/11/09 09:07:48;;;;;;;5.63;2.42;;;9.10;99.90;;;;;;5034381;28;20029;-67
2023/11/09 09:10:15;;;;;;;6.78;3.30;;;9.10;99.90;;;;;;5038316;28;20037;-67
2023/11/09 09:12:44;;;;;;;13.70;5.50;;;9.20;99.90;;;;;;5033071;28;20121;-67
2023/11/09 09:15:13;;;;;;;8.18;3.00;;;9.20;99.90;;;;;;5035461;28;20017;-67
2023/11/09 09:17:45;;;;;;;4.05;1.95;;;9.20;99.90;;;;;;5028587;28;20395;-67
2023/11/09 09:20:13;;;;;;;7.93;3.45;;;9.30;99.90;;;;;;5034401;28;20159;-67
2023/11/09 09:22:41;;;;;;;35.80;12.07;;;9.30;99.90;;;;;;5033462;28;20079;-67
2023/11/09 09:25:10;;;;;;;8.40;4.05;;;9.30;99.90;;;;;;5033849;28;20458;-67
2023/11/09 09:28:02;;;;;;;2.60;1.27;;;9.30;99.90;;;;;;5030044;28;20037;-67
2023/11/09 09:30:29;;;;;;;1.55;1.20;;;9.30;99.90;;;;;;5029625;28;20060;-67
2023/11/09 09:32:59;;;;;;;1.92;1.02;;;9.30;99.90;;;;;;5032933;28;20057;-67
2023/11/09 09:35:26;;;;;;;1.63;1.00;;;9.30;99.90;;;;;;5028776;28;20403;-68
2023/11/09 09:37:52;;;;;;;2.60;0.75;;;9.30;99.90;;;;;;5030050;28;20034;-67
2023/11/09 09:40:22;;;;;;;2.17;1.38;;;9.30;99.90;;;;;;5033238;28;20044;-66
2023/11/09 09:42:52;;;;;;;0.90;0.60;;;9.30;99.90;;;;;;5029753;28;20022;-67
2023/11/09 09:45:26;;;;;;;1.75;1.05;;;9.30;99.90;;;;;;5035344;28;20017;-67
2023/11/09 09:47:59;;;;;;;2.38;0.73;;;9.30;99.90;;;;;;5029880;28;20021;-67
2023/11/09 09:50:29;;;;;;;1.73;1.05;;;9.30;99.90;;;;;;5031098;28;21979;-67
2023/11/09 09:52:57;;;;;;;4.43;1.38;;;9.30;99.90;;;;;;5032046;28;20492;-66
2023/11/09 09:55:26;;;;;;;8.20;4.65;;;9.30;99.90;;;;;;5034183;28;20121;-67
2023/11/09 09:57:52;;;;;;;22.92;10.10;;;9.20;99.90;;;;;;5028096;28;20053;-66
2023/11/09 10:00:28;;;;;;;30.70;14.93;;;9.20;99.90;;;;;;5027924;28;20072;-67
2023/11/09 10:02:56;;;;;;;10.45;6.47;;;9.20;99.90;;;;;;5020431;28;20723;-66
2023/11/09 10:05:27;;;;;;;8.05;4.63;;;9.20;99.90;;;;;;5022500;28;20030;-66
2023/11/09 10:08:13;;;;;;;5.00;2.50;;;9.20;99.90;;;;;;5024457;28;20036;-67
2023/11/09 10:10:49;;;;;;;2.40;1.48;;;9.20;99.90;;;;;;5017522;28;20872;-67
2023/11/09 10:13:16;;;;;;;4.22;1.15;;;9.20;99.90;;;;;;5024125;28;20096;-68
2023/11/09 10:15:46;;;;;;;1.77;1.00;;;9.20;99.90;;;;;;5025272;28;20045;-67
2023/11/09 10:18:12;;;;;;;6.28;1.27;;;9.20;99.90;;;;;;5023513;28;20030;-66
2023/11/09 10:20:59;;;;;;;8.50;1.80;;;9.20;99.90;;;;;;5023324;28;20025;-66
2023/11/09 10:23:28;;;;;;;8.65;1.75;;;9.20;99.90;;;;;;5019593;28;20067;-67
2023/11/09 10:26:06;;;;;;;5.35;1.90;;;9.20;99.90;;;;;;5022514;28;20036;-68
2023/11/09 10:28:32;;;;;;;9.05;2.10;;;9.20;99.90;;;;;;5018456;28;20063;-67
2023/11/09 10:30:58;;;;;;;7.88;1.77;;;9.20;99.90;;;;;;5022408;28;20099;-67
2023/11/09 10:33:24;;;;;;;49.72;9.55;;;9.20;99.90;;;;;;5021797;28;20029;-67
2023/11/09 10:35:49;;;;;;;42.13;8.85;;;9.20;99.90;;;;;;5024801;28;20033;-66
2023/11/09 10:38:24;;;;;;;37.00;6.78;;;9.20;99.90;;;;;;5020067;28;20033;-66
2023/11/09 10:40:49;;;;;;;16.55;3.83;;;9.20;99.90;;;;;;5022405;28;20022;-67
2023/11/09 10:43:15;;;;;;;18.60;4.25;;;9.20;99.90;;;;;;5009870;28;20111;-67
2023/11/09 10:45:45;;;;;;;6.82;2.08;;;9.30;99.90;;;;;;5024988;28;20033;-67
2023/11/09 10:48:17;;;;;;;9.32;2.50;;;9.30;99.90;;;;;;5027789;28;20087;-68
2023/11/09 10:50:47;;;;;;;10.48;2.50;;;9.20;99.90;;;;;;5025775;28;20120;-68
2023/11/09 10:53:15;;;;;;;7.97;2.42;;;9.20;99.90;;;;;;5025180;28;20168;-69
2023/11/09 10:55:47;;;;;;;6.43;2.60;;;9.20;99.90;;;;;;5025135;28;20471;-68
2023/11/09 10:58:14;;;;;;;11.90;1.77;;;9.30;99.90;;;;;;5023688;28;20033;-68
2023/11/09 11:00:43;;;;;;;6.60;2.63;;;9.30;99.90;;;;;;5026392;28;20044;-67
2023/11/09 11:03:38;;;;;;;12.10;2.55;;;9.40;99.90;;;;;;5024524;28;20037;-68
2023/11/09 11:06:16;;;;;;;10.23;3.38;;;9.30;99.90;;;;;;5027676;28;20026;-68
2023/11/09 11:08:43;;;;;;;14.23;5.10;;;9.30;99.90;;;;;;5026296;28;20022;-68
2023/11/09 11:11:16;;;;;;;16.02;3.75;;;9.30;99.90;;;;;;5028610;28;20039;-67
2023/11/09 11:13:48;;;;;;;11.30;4.72;;;9.30;99.90;;;;;;5028396;28;20035;-68
2023/11/09 11:16:26;;;;;;;22.20;11.63;;;9.30;99.90;;;;;;5027366;28;20407;-67
2023/11/09 11:19:06;;;;;;;15.55;6.70;;;9.30;99.90;;;;;;5027966;28;20041;-68
2023/11/09 11:21:57;;;;;;;11.13;3.78;;;9.40;99.90;;;;;;5029192;28;20119;-67
2023/11/09 11:24:40;;;;;;;12.27;4.13;;;9.40;99.90;;;;;;5027952;28;20021;-68
2023/11/09 11:27:14;;;;;;;16.10;3.13;;;9.40;99.90;;;;;;5027906;28;20885;-68
2023/11/09 11:29:40;;;;;;;21.33;6.70;;;9.30;99.90;;;;;;5027291;28;20042;-68
2023/11/09 11:32:10;;;;;;;14.32;3.92;;;9.40;99.90;;;;;;5022818;28;21266;-67
2023/11/09 11:34:49;;;;;;;11.13;4.43;;;9.50;99.90;;;;;;5022769;28;20075;-67
2023/11/09 11:37:30;;;;;;;11.80;5.28;;;9.50;99.90;;;;;;5026764;28;20151;-68
2023/11/09 11:39:59;;;;;;;9.02;3.13;;;9.60;99.90;;;;;;5026883;28;20458;-69
2023/11/09 11:42:27;;;;;;;13.95;4.18;;;9.50;99.90;;;;;;5013703;28;20101;-67
2023/11/09 11:44:59;;;;;;;12.68;4.28;;;9.60;99.90;;;;;;5027807;28;20040;-68
2023/11/09 11:47:28;;;;;;;13.95;4.93;;;9.60;99.90;;;;;;5027847;28;20045;-68
2023/11/09 11:49:57;;;;;;;9.65;4.55;;;9.60;99.90;;;;;;5026614;28;20871;-68
2023/11/09 11:52:23;;;;;;;19.77;4.43;;;9.70;99.90;;;;;;5025729;28;20164;-68
2023/11/09 11:54:53;;;;;;;10.88;3.53;;;9.50;99.90;;;;;;5028011;28;20029;-67
2023/11/09 11:57:19;;;;;;;10.43;4.65;;;9.60;99.90;;;;;;5024132;28;20033;-68
2023/11/09 12:00:08;;;;;;;9.18;4.20;;;9.50;99.90;;;;;;5028966;28;20086;-68
2023/11/09 12:02:35;;;;;;;11.18;2.70;;;9.50;99.90;;;;;;5025842;28;20025;-68
2023/11/09 12:05:02;;;;;;;35.85;15.65;;;9.40;99.90;;;;;;5027202;28;20064;-67
2023/11/09 12:07:34;;;;;;;8.70;4.05;;;9.30;99.90;;;;;;5028301;28;20036;-67
2023/11/09 12:10:00;;;;;;;7.85;4.50;;;9.30;99.90;;;;;;5027142;28;20479;-68
2023/11/09 12:12:26;;;;;;;11.18;4.25;;;9.40;99.90;;;;;;5026027;28;20049;-67
2023/11/09 12:14:53;;;;;;;11.57;2.92;;;9.30;99.90;;;;;;5026210;28;20104;-67
2023/11/09 12:17:23;;;;;;;17.30;3.55;;;9.30;99.90;;;;;;5027059;28;20025;-67
2023/11/09 12:19:49;;;;;;;14.93;6.60;;;9.40;99.90;;;;;;5026240;28;20026;-67
2023/11/09 12:22:15;;;;;;;9.38;3.67;;;9.20;99.90;;;;;;5022414;28;20053;-67
2023/11/09 12:24:41;;;;;;;14.70;4.68;;;9.20;99.90;;;;;;5022781;28;20105;-68
2023/11/09 12:27:08;;;;;;;17.02;8.00;;;9.20;99.90;;;;;;5025170;28;20144;-67
2023/11/09 12:29:44;;;;;;;13.80;5.35;;;9.30;99.90;;;;;;5027029;28;20677;-68
2023/11/09 12:32:11;;;;;;;16.15;7.28;;;9.30;99.90;;;;;;5026580;28;20088;-68
2023/11/09 12:34:40;;;;;;;11.23;4.18;;;9.40;99.90;;;;;;5026814;28;20103;-68
2023/11/09 12:37:13;;;;;;;10.80;3.58;;;9.50;99.90;;;;;;5025254;28;20434;-67
2023/11/09 12:39:43;;;;;;;38.63;15.20;;;9.70;99.90;;;;;;5027453;28;20680;-67
2023/11/09 12:42:11;;;;;;;10.45;4.22;;;9.90;99.90;;;;;;5025511;28;20105;-67
2023/11/09 12:44:42;;;;;;;11.40;3.50;;;9.80;99.90;;;;;;5016160;28;20088;-67
2023/11/09 12:47:15;;;;;;;10.63;2.83;;;9.80;99.90;;;;;;5027824;28;20034;-67
2023/11/09 12:49:43;;;;;;;17.13;3.60;;;9.80;99.90;;;;;;5026434;28;20064;-67
2023/11/09 12:52:09;;;;;;;5.80;2.47;;;9.80;99.90;;;;;;5027471;28;21193;-68
2023/11/09 12:54:35;;;;;;;10.52;3.17;;;9.80;99.90;;;;;;5025733;28;20104;-67
2023/11/09 12:57:05;;;;;;;4.72;2.13;;;9.90;99.90;;;;;;5025370;28;20033;-66
2023/11/09 12:59:33;;;;;;;6.30;2.47;;;10.10;99.90;;;;;;5025699;28;20499;-67
2023/11/09 13:02:14;;;;;;;6.90;1.70;;;10.30;99.90;;;;;;5026996;28;20033;-67
2023/11/09 13:04:46;;;;;;;11.55;2.70;;;10.50;99.90;;;;;;5028502;28;20033;-68
2023/11/09 13:07:13;;;;;;;10.70;3.75;;;10.40;99.90;;;;;;5037033;28;20028;-68
2023/11/09 13:09:43;;;;;;;7.50;1.85;;;10.50;99.90;;;;;;5032901;28;20525;-67
2023/11/09 13:12:32;;;;;;;9.30;2.10;;;10.70;99.90;;;;;;5043291;28;20078;-67
2023/11/09 13:17:50;;;;;;;8.65;1.60;;;10.80;99.90;;;;;;5028782;28;20022;-67
2023/11/09 13:23:11;;;;;;;25.30;9.63;;;10.60;99.90;;;;;;5027057;28;20033;-67
2023/11/09 13:25:47;;;;;;;13.77;3.80;;;10.60;99.90;;;;;;5032773;28;20021;-67
2023/11/09 13:28:15;;;;;;;6.07;2.53;;;10.50;99.90;;;;;;5032291;28;21268;-67
2023/11/09 13:30:50;;;;;;;27.05;9.68;;;10.60;99.90;;;;;;5027776;28;20065;-67